5 day graph

You are here

Error message

  • Notice: Trying to access array offset on value of type int in DrupalRequestSanitizer::stripDangerousValues() (line 102 of /home/twolittl/public_html/cms/includes/request-sanitizer.inc).
  • Notice: Trying to access array offset on value of type int in DrupalRequestSanitizer::stripDangerousValues() (line 102 of /home/twolittl/public_html/cms/includes/request-sanitizer.inc).
  • Notice: Trying to access array offset on value of type int in DrupalRequestSanitizer::stripDangerousValues() (line 102 of /home/twolittl/public_html/cms/includes/request-sanitizer.inc).
  • Notice: Trying to access array offset on value of type int in DrupalRequestSanitizer::stripDangerousValues() (line 102 of /home/twolittl/public_html/cms/includes/request-sanitizer.inc).
  • Notice: Trying to access array offset on value of type int in DrupalRequestSanitizer::stripDangerousValues() (line 102 of /home/twolittl/public_html/cms/includes/request-sanitizer.inc).
  • Notice: Trying to access array offset on value of type int in DrupalRequestSanitizer::stripDangerousValues() (line 102 of /home/twolittl/public_html/cms/includes/request-sanitizer.inc).
  • Notice: Trying to access array offset on value of type int in DrupalRequestSanitizer::stripDangerousValues() (line 102 of /home/twolittl/public_html/cms/includes/request-sanitizer.inc).
  • Notice: Trying to access array offset on value of type int in DrupalRequestSanitizer::stripDangerousValues() (line 102 of /home/twolittl/public_html/cms/includes/request-sanitizer.inc).
  • Notice: Trying to access array offset on value of type int in DrupalRequestSanitizer::stripDangerousValues() (line 102 of /home/twolittl/public_html/cms/includes/request-sanitizer.inc).
  • Notice: Trying to access array offset on value of type int in DrupalRequestSanitizer::stripDangerousValues() (line 102 of /home/twolittl/public_html/cms/includes/request-sanitizer.inc).
  • Deprecated function: Function get_magic_quotes_gpc() is deprecated in phpMyEdit->get_cgi_var() (line 1773 of /home/twolittl/public_html/phpMyEdit.class.php).
  • Deprecated function: implode(): Passing glue string after array is deprecated. Swap the parameters in drupal_get_feeds() (line 394 of /home/twolittl/public_html/cms/includes/common.inc).

Hive Data

Page: 1 of 16645  Records: 998690

Row Date Time Hive Temp Hive Humidity Outside Temp Outside Humidity Bottom Board Temp Outside Wall Temp Electronics Temp Light Levels inHG Fan Heat Cover Notes
Clear Sorted By: Hive Temp ascending, Notes ascending, Electronics Temp ascending, Outside Wall Temp ascending, Row descending
View 696803 Nov 11 2015 2:59:26pm 25.3 45 10.9 59 52.7 54.5 68 931 29.56 0 1 0 NA
View 696804 Nov 11 2015 3:00:27pm 25.6 41 11 59 54.95 54.5 68 930 29.56 0 1 0 NA
View 367144 Feb 17 2015 2:10:52am 32 0 34.88 71 60.35 40.55 57.2 240 29.47 0 1 0 NA
View 367143 Feb 17 2015 2:09:51am 32 0 35.06 72 59 40.55 57.2 240 29.47 0 1 0 NA
View 367140 Feb 17 2015 2:06:50am 32 0 35.06 72 54.5 40.55 57.2 240 29.47 0 1 0 NA
View 367139 Feb 17 2015 2:05:50am 32 0 35.06 72 52.7 40.55 57.2 240 29.47 0 1 0 NA
View 367137 Feb 17 2015 2:03:49am 32 0 35.06 71 47.75 40.55 57.2 247 29.48 0 1 0 NA
View 367142 Feb 17 2015 2:08:51am 32 0 34.88 72 57.65 41 57.2 240 29.47 0 1 0 NA
View 367141 Feb 17 2015 2:07:51am 32 0 35.06 72 56.3 41 57.2 240 29.47 0 1 0 NA
View 367138 Feb 17 2015 2:04:50am 32 0 35.06 71 50.45 41 57.2 239 29.47 0 1 0 NA
View 367287 Feb 17 2015 4:36:18am 32 0 33.8 72 102.2 38.75 59 237 29.44 0 1 0 NA
View 367286 Feb 17 2015 4:35:18am 32 0 33.8 71 102.2 38.75 59 237 29.44 0 1 0 NA
View 367285 Feb 17 2015 4:34:18am 32 0 33.62 71 102.2 38.75 59 237 29.44 0 1 0 NA
View 367284 Feb 17 2015 4:33:17am 32 0 33.8 71 102.2 38.75 59 237 29.45 0 1 0 NA
View 367283 Feb 17 2015 4:32:17am 32 0 33.8 71 101.75 38.75 59 237 29.44 0 1 0 NA
View 367282 Feb 17 2015 4:31:17am 32 0 33.8 71 101.75 38.75 59 237 29.44 0 1 0 NA
View 367280 Feb 17 2015 4:29:16am 32 0 33.8 72 101.75 38.75 59 237 29.44 0 1 0 NA
View 367279 Feb 17 2015 4:28:15am 32 0 33.8 72 101.3 38.75 59 237 29.44 0 1 0 NA
View 367278 Feb 17 2015 4:27:15am 32 0 33.8 71 101.75 38.75 59 238 29.44 0 1 0 NA
View 367277 Feb 17 2015 4:26:15am 32 0 33.8 72 101.3 38.75 59 238 29.44 0 1 0 NA
View 367276 Feb 17 2015 4:25:14am 32 0 33.8 71 101.3 38.75 59 238 29.44 0 1 0 NA
View 367275 Feb 17 2015 4:24:14am 32 0 33.8 71 101.3 38.75 59 238 29.44 0 1 0 NA
View 367273 Feb 17 2015 4:22:13am 32 0 33.8 71 101.3 38.75 59 238 29.45 0 1 0 NA
View 367281 Feb 17 2015 4:30:16am 32 0 33.62 72 101.75 39.2 59 238 29.44 0 1 0 NA
View 367274 Feb 17 2015 4:23:14am 32 0 33.8 72 101.3 39.2 59 238 29.44 0 1 0 NA
View 367272 Feb 17 2015 4:21:13am 32 0 33.8 71 101.3 39.2 59 238 29.44 0 1 0 NA
View 367271 Feb 17 2015 4:20:12am 32 0 33.8 71 100.85 39.2 59 237 29.45 0 1 0 NA
View 367270 Feb 17 2015 4:19:12am 32 0 33.8 71 100.85 39.2 59 238 29.44 0 1 0 NA
View 367269 Feb 17 2015 4:18:12am 32 0 33.8 71 100.85 39.2 59 238 29.45 0 1 0 NA
View 367268 Feb 17 2015 4:17:11am 32 0 33.8 72 100.85 39.2 59 238 29.45 0 1 0 NA
View 367267 Feb 17 2015 4:16:11am 32 0 33.8 72 100.85 39.2 59 237 29.45 0 1 0 NA
View 367266 Feb 17 2015 4:15:11am 32 0 33.8 72 100.85 39.2 59 237 29.44 0 1 0 NA
View 367265 Feb 17 2015 4:14:10am 32 0 33.8 72 100.4 39.2 59 237 29.45 0 1 0 NA
View 367264 Feb 17 2015 4:13:10am 32 0 33.98 72 100.4 39.2 59 237 29.45 0 1 0 NA
View 367263 Feb 17 2015 4:12:10am 32 0 33.98 72 100.4 39.2 59 238 29.45 0 1 0 NA
View 367262 Feb 17 2015 4:11:09am 32 0 33.98 71 100.4 39.2 59 238 29.45 0 1 0 NA
View 367261 Feb 17 2015 4:10:09am 32 0 33.8 72 100.4 39.2 59 238 29.45 0 1 0 NA
View 367260 Feb 17 2015 4:09:08am 32 0 33.98 72 100.4 39.2 59 237 29.45 0 1 0 NA
View 367259 Feb 17 2015 4:08:08am 32 0 33.98 72 99.95 39.2 59 238 29.45 0 1 0 NA
View 367258 Feb 17 2015 4:07:08am 32 0 33.98 72 99.95 39.2 59 238 29.45 0 1 0 NA
View 367257 Feb 17 2015 4:06:07am 32 0 33.98 71 99.95 39.2 59 239 29.45 0 1 0 NA
View 367256 Feb 17 2015 4:05:07am 32 0 33.98 72 99.95 39.2 59 238 29.45 0 1 0 NA
View 367255 Feb 17 2015 4:04:07am 32 0 34.16 72 99.5 39.2 59 238 29.45 0 1 0 NA
View 367254 Feb 17 2015 4:02:18am 32 0 33.98 72 99.5 39.2 59 238 29.45 0 1 0 NA
View 367253 Feb 17 2015 4:01:18am 32 0 34.16 72 99.5 39.2 59 238 29.45 0 1 0 NA
View 367252 Feb 17 2015 4:00:18am 32 0 34.16 72 99.5 39.2 59 238 29.45 0 1 0 NA
View 367251 Feb 17 2015 3:59:17am 32 0 34.16 72 99.05 39.2 59 238 29.45 0 1 0 NA
View 367250 Feb 17 2015 3:58:17am 32 0 34.16 71 99.05 39.2 59 238 29.45 0 1 0 NA
View 367249 Feb 17 2015 3:57:17am 32 0 34.34 71 99.05 39.2 59 237 29.45 0 1 0 NA
View 367248 Feb 17 2015 3:56:16am 32 0 34.34 72 98.6 39.2 59 239 29.45 0 1 0 NA
View 367247 Feb 17 2015 3:55:16am 32 0 34.16 72 98.6 39.2 59 238 29.46 0 1 0 NA
View 367246 Feb 17 2015 3:54:16am 32 0 34.16 72 98.6 39.2 59 238 29.45 0 1 0 NA
View 367245 Feb 17 2015 3:53:15am 32 0 34.16 72 98.6 39.2 59 238 29.45 0 1 0 NA
View 367244 Feb 17 2015 3:52:15am 32 0 34.16 72 98.6 39.2 59 238 29.45 0 1 0 NA
View 367243 Feb 17 2015 3:51:14am 32 0 34.16 72 98.15 39.2 59 238 29.45 0 1 0 NA
View 367242 Feb 17 2015 3:50:14am 32 0 34.16 72 98.15 39.2 59 238 29.45 0 1 0 NA
View 367241 Feb 17 2015 3:49:14am 32 0 34.16 72 98.15 39.2 59 238 29.45 0 1 0 NA
View 367240 Feb 17 2015 3:48:13am 32 0 34.16 72 97.7 39.2 59 238 29.46 0 1 0 NA
View 367239 Feb 17 2015 3:47:13am 32 0 34.16 72 97.7 39.2 59 238 29.45 0 1 0 NA
View 367238 Feb 17 2015 3:46:13am 32 0 34.16 72 97.7 39.2 59 238 29.46 0 1 0 NA